Time;durP1;ratioP1;P1;durP2;ratioP2;P2;SDS_P1;SDS_P2;PMS_P1;PMS_P2;Temp;Humidity;BMP_temperature;BMP_pressure;BME280_temperature;BME280_humidity;BME280_pressure;Samples;Min_cycle;Max_cycle;Signal;HPM_P1;HPM_P2
2024/03/13 00:00:29;;;;;;;37.67;15.00;;;;;;;5.66;100.00;101252.84;6279853;28;20044;-76
2024/03/13 00:03:32;;;;;;;39.53;14.57;;;;;;;5.69;100.00;101252.78;6268799;28;20484;-75
2024/03/13 00:06:34;;;;;;;48.85;17.08;;;;;;;5.66;100.00;101247.63;6279707;28;20472;-76
2024/03/13 00:09:43;;;;;;;41.83;15.88;;;;;;;5.64;100.00;101246.81;6279407;28;20052;-76
2024/03/13 00:12:45;;;;;;;33.55;13.52;;;;;;;5.63;100.00;101241.63;6280090;28;20044;-76
2024/03/13 00:15:47;;;;;;;42.72;14.20;;;;;;;5.62;100.00;101246.00;6279594;28;20049;-76
2024/03/13 00:18:49;;;;;;;43.60;15.70;;;;;;;5.64;100.00;101251.19;6279732;28;20060;-75
2024/03/13 00:21:51;;;;;;;44.78;15.60;;;;;;;5.69;100.00;101242.34;6279618;28;20045;-75
2024/03/13 00:24:53;;;;;;;33.63;12.65;;;;;;;5.79;100.00;101248.19;6279012;28;20152;-78
2024/03/13 00:27:55;;;;;;;38.55;14.48;;;;;;;5.82;100.00;101248.97;6271690;28;20056;-75
2024/03/13 00:30:58;;;;;;;41.03;15.35;;;;;;;5.89;100.00;101247.03;6278974;28;20127;-75
2024/03/13 00:34:00;;;;;;;42.88;14.80;;;;;;;5.95;100.00;101243.44;6278853;28;20547;-75
2024/03/13 00:37:02;;;;;;;40.60;15.30;;;;;;;5.99;100.00;101232.88;6262445;28;20064;-75
2024/03/13 00:40:04;;;;;;;37.85;13.35;;;;;;;6.01;100.00;101228.50;6253876;28;20042;-75
2024/03/13 00:43:05;;;;;;;42.03;14.48;;;;;;;6.05;100.00;101231.88;6254222;28;20119;-75
2024/03/13 00:46:08;;;;;;;36.13;13.13;;;;;;;6.10;100.00;101233.47;6254314;28;20045;-75
2024/03/13 00:49:09;;;;;;;45.60;14.73;;;;;;;6.14;100.00;101233.41;6253672;28;20057;-75
2024/03/13 00:52:11;;;;;;;41.95;15.90;;;;;;;6.17;100.00;101220.25;6254296;28;20042;-75
2024/03/13 00:55:12;;;;;;;36.58;14.07;;;;;;;6.21;100.00;101211.44;6253826;28;20056;-75
2024/03/13 00:58:14;;;;;;;38.63;14.82;;;;;;;6.26;100.00;101207.78;6253322;28;20053;-75
2024/03/13 01:01:18;;;;;;;35.38;14.57;;;;;;;6.24;100.00;101198.31;6253475;28;20350;-75
2024/03/13 01:04:19;;;;;;;42.17;14.93;;;;;;;6.13;100.00;101201.19;6253411;28;20057;-76
2024/03/13 01:07:22;;;;;;;44.38;14.25;;;;;;;6.04;100.00;101193.63;6253931;28;20454;-75
2024/03/13 01:10:24;;;;;;;43.83;15.85;;;;;;;6.00;100.00;101189.41;6253287;28;20042;-76
2024/03/13 01:13:27;;;;;;;35.80;14.48;;;;;;;5.94;100.00;101187.81;6253689;28;20052;-76
2024/03/13 01:16:30;;;;;;;42.97;14.48;;;;;;;5.88;100.00;101182.75;6258231;28;20052;-76
2024/03/13 01:19:33;;;;;;;43.97;14.95;;;;;;;5.83;100.00;101180.25;6272417;28;20541;-75
2024/03/13 01:22:34;;;;;;;40.88;15.38;;;;;;;5.83;100.00;101184.63;6269753;28;20045;-76
2024/03/13 01:25:36;;;;;;;44.75;16.10;;;;;;;5.78;100.00;101189.09;6275524;28;20131;-75
2024/03/13 01:28:37;;;;;;;36.00;13.93;;;;;;;5.76;100.00;101183.06;6278059;28;20048;-75
2024/03/13 01:31:40;;;;;;;42.90;15.80;;;;;;;5.71;100.00;101190.16;6277377;28;20041;-75
2024/03/13 01:34:41;;;;;;;40.80;15.38;;;;;;;5.69;100.00;101189.34;6277725;28;20139;-75
2024/03/13 01:37:58;;;;;;;48.28;14.90;;;;;;;5.71;100.00;101184.94;6269659;28;20049;-76
2024/03/13 01:57:55;;;;;;;42.92;15.60;;;;;;;5.60;100.00;101198.25;6277661;28;20448;-76
2024/03/13 02:04:17;;;;;;;40.60;14.57;;;;;;;5.47;100.00;101182.06;6277203;28;20053;-75
2024/03/13 02:07:19;;;;;;;38.92;14.45;;;;;;;5.42;100.00;101175.25;6277097;28;20349;-76
2024/03/13 02:10:21;;;;;;;48.35;15.15;;;;;;;5.36;100.00;101168.47;6275478;28;20048;-76
2024/03/13 02:13:24;;;;;;;37.60;14.15;;;;;;;5.40;100.00;101154.44;6268629;28;20345;-76
2024/03/13 02:16:25;;;;;;;51.22;14.98;;;;;;;5.44;100.00;101153.47;6276812;28;20056;-75
2024/03/13 02:19:31;;;;;;;42.95;15.27;;;;;;;5.46;100.00;101156.06;6276282;28;20063;-76
2024/03/13 02:22:35;;;;;;;48.30;15.45;;;;;;;5.44;100.00;101156.06;6277266;28;20048;-76
2024/03/13 02:25:36;;;;;;;48.28;15.70;;;;;;;5.42;100.00;101154.41;6276319;28;20361;-75
2024/03/13 02:28:38;;;;;;;41.10;14.15;;;;;;;5.41;100.00;101157.91;6259324;28;20456;-75
2024/03/13 02:31:39;;;;;;;42.55;14.32;;;;;;;5.42;100.00;101160.47;6258697;28;20052;-75
2024/03/13 02:34:43;;;;;;;43.67;13.82;;;;;;;5.43;100.00;101158.72;6258900;28;20055;-75
2024/03/13 02:37:45;;;;;;;42.30;15.45;;;;;;;5.39;100.00;101160.53;6259154;28;20377;-75
2024/03/13 02:40:46;;;;;;;44.33;14.50;;;;;;;5.38;100.00;101164.06;6258755;28;20052;-76
2024/03/13 02:43:48;;;;;;;44.35;15.90;;;;;;;5.34;100.00;101168.47;6272962;22;20191;-76
2024/03/13 02:46:49;;;;;;;37.55;13.82;;;;;;;5.32;100.00;101162.47;6225519;28;20366;-77
2024/03/13 02:49:51;;;;;;;45.88;15.30;;;;;;;5.32;100.00;101159.84;6227020;28;20064;-77
2024/03/13 02:52:52;;;;;;;42.08;14.35;;;;;;;5.32;100.00;101141.63;6226174;28;20053;-76
2024/03/13 02:55:54;;;;;;;37.05;13.98;;;;;;;5.29;100.00;101136.47;6230918;28;20060;-76
2024/03/13 02:58:55;;;;;;;37.13;14.88;;;;;;;5.26;100.00;101125.25;6233615;28;20132;-76
2024/03/13 03:01:57;;;;;;;41.10;13.48;;;;;;;5.13;100.00;101116.03;6233845;28;20052;-76
2024/03/13 03:04:58;;;;;;;39.85;15.10;;;;;;;5.15;100.00;101124.69;6233726;28;20464;-76
2024/03/13 03:08:00;;;;;;;44.70;17.02;;;;;;;5.15;100.00;101135.97;6258239;28;20044;-76
2024/03/13 03:11:03;;;;;;;42.03;14.77;;;;;;;5.15;100.00;101133.34;6257738;28;20052;-77
2024/03/13 03:14:05;;;;;;;46.65;15.02;;;;;;;5.13;100.00;101145.53;6258508;28;20429;-78
2024/03/13 03:17:07;;;;;;;40.35;15.02;;;;;;;5.13;100.00;101142.94;6257852;28;20353;-76
2024/03/13 03:20:09;;;;;;;44.20;15.25;;;;;;;5.12;100.00;101137.78;6248205;28;20052;-76
2024/03/13 03:23:10;;;;;;;47.53;15.13;;;;;;;5.12;100.00;101141.25;6278506;28;20080;-76
2024/03/13 03:26:17;;;;;;;40.17;14.00;;;;;;;5.14;100.00;101149.88;6270833;28;20053;-77
2024/03/13 03:29:19;;;;;;;42.55;14.88;;;;;;;5.12;100.00;101156.03;6258902;28;20045;-76
2024/03/13 03:32:20;;;;;;;34.15;13.00;;;;;;;5.07;100.00;101159.59;6257862;28;20456;-76
2024/03/13 03:35:24;;;;;;;44.80;15.55;;;;;;;5.00;100.00;101158.03;6259158;28;20045;-76
2024/03/13 03:38:28;;;;;;;35.60;13.18;;;;;;;4.98;100.00;101166.75;6266107;28;20045;-76
2024/03/13 03:41:31;;;;;;;38.00;12.05;;;;;;;4.97;100.00;101173.72;6257560;28;20127;-77
2024/03/13 03:44:33;;;;;;;45.10;15.00;;;;;;;4.98;100.00;101174.56;6257644;28;20053;-77
2024/03/13 03:47:35;;;;;;;47.58;16.73;;;;;;;4.94;100.00;101173.78;6257605;28;20457;-76
2024/03/13 03:50:37;;;;;;;37.60;13.10;;;;;;;4.89;100.00;101169.59;6257325;28;20437;-76
2024/03/13 03:53:38;;;;;;;40.60;13.80;;;;;;;4.85;100.00;101168.78;6257746;28;20053;-76
2024/03/13 03:56:40;;;;;;;42.35;13.82;;;;;;;4.82;100.00;101159.31;6246608;28;20330;-76
2024/03/13 03:59:41;;;;;;;34.78;13.15;;;;;;;4.80;100.00;101158.47;6248920;28;20084;-76
2024/03/13 04:02:43;;;;;;;38.30;13.25;;;;;;;4.79;100.00;101150.72;6233074;28;20042;-76
2024/03/13 04:05:45;;;;;;;48.75;15.15;;;;;;;4.75;100.00;101149.06;6232831;28;20056;-76
2024/03/13 04:08:47;;;;;;;45.42;14.80;;;;;;;4.77;100.00;101149.91;6233005;28;20132;-77
2024/03/13 04:11:49;;;;;;;40.30;14.43;;;;;;;4.76;100.00;101151.63;6232623;28;20061;-76
2024/03/13 04:14:51;;;;;;;42.80;14.40;;;;;;;4.70;100.00;101151.78;6232588;28;20046;-76
2024/03/13 04:17:53;;;;;;;46.13;13.98;;;;;;;4.67;100.00;101145.78;6233116;28;20082;-76
2024/03/13 04:20:54;;;;;;;45.13;14.77;;;;;;;4.65;100.00;101152.78;6232295;28;20195;-78
2024/03/13 04:23:56;;;;;;;43.50;14.05;;;;;;;4.62;100.00;101163.25;6232893;28;20065;-77
2024/03/13 04:26:57;;;;;;;42.78;14.70;;;;;;;4.58;100.00;101168.50;6232621;28;20429;-78
2024/03/13 04:29:59;;;;;;;42.40;14.43;;;;;;;4.56;100.00;101174.66;6273333;28;20063;-77
2024/03/13 04:33:01;;;;;;;40.78;12.98;;;;;;;4.58;100.00;101175.47;6279756;28;20421;-77
2024/03/13 04:36:02;;;;;;;45.00;14.48;;;;;;;4.51;100.00;101169.56;6255737;28;20156;-78
2024/03/13 04:39:05;;;;;;;43.63;14.07;;;;;;;4.37;100.00;101157.72;6285865;28;20329;-79
2024/03/13 04:42:07;;;;;;;39.17;14.05;;;;;;;4.30;100.00;101160.44;6286480;28;20048;-79
2024/03/13 04:45:09;;;;;;;45.13;14.35;;;;;;;4.36;100.00;101156.00;6283561;28;20467;-78
2024/03/13 04:48:10;;;;;;;37.25;14.32;;;;;;;4.24;100.00;101144.13;6279725;28;20059;-78
2024/03/13 04:51:14;;;;;;;40.92;14.23;;;;;;;4.14;100.00;101143.47;6285922;28;20094;-77
2024/03/13 04:54:16;;;;;;;39.08;12.90;;;;;;;4.20;100.00;101151.13;6286257;28;20048;-77
2024/03/13 04:57:17;;;;;;;36.95;12.32;;;;;;;4.17;100.00;101151.19;6285963;28;20075;-78
2024/03/13 05:00:19;;;;;;;35.90;12.82;;;;;;;4.20;100.00;101152.88;6285798;28;20060;-78
2024/03/13 05:03:20;;;;;;;40.25;14.05;;;;;;;4.11;100.00;101147.84;6286027;28;20048;-78
2024/03/13 05:06:23;;;;;;;36.03;13.25;;;;;;;4.09;100.00;101145.31;6285511;28;20044;-78
2024/03/13 05:09:24;;;;;;;36.42;13.27;;;;;;;4.10;100.00;101140.94;6260743;28;20143;-78
2024/03/13 05:12:32;;;;;;;35.78;13.40;;;;;;;4.08;100.00;101135.75;6273841;28;20045;-78
2024/03/13 05:15:34;;;;;;;36.67;12.70;;;;;;;3.97;100.00;101141.19;6283466;28;20428;-77
2024/03/13 05:18:35;;;;;;;39.60;12.82;;;;;;;3.96;100.00;101139.47;6275381;28;20384;-77
2024/03/13 05:21:37;;;;;;;45.80;14.57;;;;;;;4.04;100.00;101137.59;6282166;28;20048;-77
2024/03/13 05:24:38;;;;;;;39.60;12.77;;;;;;;4.03;100.00;101141.06;6285182;28;20055;-77
2024/03/13 05:27:40;;;;;;;37.80;13.73;;;;;;;4.06;100.00;101147.94;6284700;28;20041;-77
2024/03/13 05:30:42;;;;;;;43.90;14.85;;;;;;;4.11;100.00;101146.13;6276631;28;20049;-77
2024/03/13 05:33:44;;;;;;;35.10;12.23;;;;;;;4.14;100.00;101161.66;6285459;28;20346;-77
2024/03/13 05:36:46;;;;;;;42.97;14.70;;;;;;;4.26;100.00;101158.78;6285241;28;20071;-77
2024/03/13 05:39:48;;;;;;;47.22;14.82;;;;;;;4.36;100.00;101158.59;6282927;28;20148;-77
2024/03/13 05:42:50;;;;;;;44.92;13.40;;;;;;;4.39;100.00;101153.34;6249582;28;20050;-77
2024/03/13 05:45:51;;;;;;;39.35;14.40;;;;;;;4.40;100.00;101157.66;6248184;28;20053;-77
2024/03/13 05:48:53;;;;;;;49.00;13.80;;;;;;;4.42;100.00;101163.69;6235303;28;20049;-76
2024/03/13 05:51:56;;;;;;;37.67;13.68;;;;;;;4.38;100.00;101165.50;6235673;28;20049;-76
2024/03/13 05:54:58;;;;;;;44.22;15.15;;;;;;;4.42;100.00;101163.69;6235151;28;20073;-77
2024/03/13 05:57:59;;;;;;;37.85;13.18;;;;;;;4.40;100.00;101166.31;6235297;28;20049;-77
2024/03/13 06:01:02;;;;;;;44.05;14.63;;;;;;;4.36;100.00;101175.09;6255812;28;20049;-77
2024/03/13 06:04:03;;;;;;;50.55;14.85;;;;;;;4.38;100.00;101173.31;6284674;28;20131;-77
2024/03/13 06:07:05;;;;;;;43.28;14.65;;;;;;;4.37;100.00;101174.19;6284251;28;20052;-77
2024/03/13 06:10:09;;;;;;;37.50;13.07;;;;;;;4.34;100.00;101158.63;6284065;28;20380;-77
2024/03/13 06:13:11;;;;;;;38.42;12.43;;;;;;;4.33;100.00;101165.59;6284533;28;20429;-77
2024/03/13 06:16:14;;;;;;;39.75;13.90;;;;;;;4.36;100.00;101164.69;6283966;28;20071;-77
2024/03/13 06:19:15;;;;;;;43.35;13.77;;;;;;;4.40;100.00;101171.50;6265425;28;20119;-77
2024/03/13 06:22:17;;;;;;;35.30;13.60;;;;;;;4.45;100.00;101168.81;6251325;28;20053;-77
2024/03/13 06:25:18;;;;;;;39.58;13.80;;;;;;;4.51;100.00;101173.91;6234248;28;20387;-77
2024/03/13 06:31:40;;;;;;;45.92;14.00;;;;;;;4.59;100.00;101169.41;6283102;28;20128;-77
2024/03/13 06:34:41;;;;;;;42.35;13.85;;;;;;;4.61;100.00;101167.59;6260503;28;20046;-77
2024/03/13 06:37:43;;;;;;;36.83;13.68;;;;;;;4.67;100.00;101164.84;6248126;28;20056;-77
2024/03/13 06:40:44;;;;;;;36.83;13.20;;;;;;;4.69;100.00;101167.44;6254606;28;20334;-77
2024/03/13 06:43:46;;;;;;;35.67;12.73;;;;;;;4.77;100.00;101170.75;6248657;28;20067;-77
2024/03/13 06:46:47;;;;;;;36.63;13.23;;;;;;;4.86;100.00;101175.75;6254299;28;20052;-77
2024/03/13 06:49:49;;;;;;;39.70;12.80;;;;;;;4.94;100.00;101176.41;6240032;28;20045;-77
2024/03/13 06:52:51;;;;;;;36.97;13.68;;;;;;;4.99;100.00;101173.69;6246117;28;20457;-77
2024/03/13 06:55:52;;;;;;;41.75;14.77;;;;;;;5.06;100.00;101178.72;6244801;28;20049;-77
2024/03/13 06:58:56;;;;;;;36.67;12.27;;;;;;;5.13;100.00;101181.16;6233393;28;20053;-77
2024/03/13 07:02:00;;;;;;;41.67;14.77;;;;;;;5.19;100.00;101166.25;6234372;28;20426;-77
2024/03/13 07:05:01;;;;;;;37.38;11.05;;;;;;;5.25;100.00;101171.31;6233797;28;20199;-77
2024/03/13 07:08:03;;;;;;;49.40;14.45;;;;;;;5.34;100.00;101176.28;6233775;28;20045;-77
2024/03/13 07:11:05;;;;;;;35.10;12.98;;;;;;;5.35;100.00;101178.00;6233390;28;20112;-76
2024/03/13 07:14:11;;;;;;;36.90;13.07;;;;;;;5.44;100.00;101178.66;6233472;28;20350;-78
2024/03/13 07:17:13;;;;;;;44.53;12.18;;;;;;;5.54;100.00;101172.31;6234004;28;20140;-78
2024/03/13 07:20:15;;;;;;;40.60;13.82;;;;;;;5.63;100.00;101179.91;6252424;28;20055;-77
2024/03/13 07:23:17;;;;;;;33.58;11.50;;;;;;;5.73;100.00;101181.41;6258445;28;20086;-77
2024/03/13 07:26:18;;;;;;;37.72;13.13;;;;;;;5.89;100.00;101189.66;6257670;28;20060;-77
2024/03/13 07:29:20;;;;;;;33.40;13.02;;;;;;;6.06;100.00;101189.25;6250097;28;20057;-78
2024/03/13 07:32:21;;;;;;;41.50;13.20;;;;;;;6.24;100.00;101193.09;6252679;28;20708;-78
2024/03/13 07:35:24;;;;;;;32.33;12.02;;;;;;;6.41;100.00;101184.78;6256799;28;20052;-78
2024/03/13 07:38:26;;;;;;;31.15;10.70;;;;;;;6.51;100.00;101183.63;6257950;28;20048;-78
2024/03/13 07:41:28;;;;;;;32.83;12.73;;;;;;;6.64;100.00;101186.72;6257500;28;20052;-78
2024/03/13 07:44:30;;;;;;;29.63;11.55;;;;;;;6.73;100.00;101184.69;6257605;28;20491;-77
2024/03/13 07:47:32;;;;;;;36.50;11.48;;;;;;;6.84;100.00;101179.13;6257642;28;20597;-78
2024/03/13 07:50:33;;;;;;;33.17;11.23;;;;;;;6.97;100.00;101182.22;6259157;28;20052;-78
2024/03/13 07:53:35;;;;;;;31.42;11.32;;;;;;;6.98;100.00;101183.91;6268225;28;20037;-78
2024/03/13 07:56:37;;;;;;;32.40;11.82;;;;;;;7.01;100.00;101178.59;6264486;28;20045;-78
2024/03/13 07:59:40;;;;;;;34.92;10.95;;;;;;;7.08;100.00;101175.72;6246081;28;20425;-78
2024/03/13 08:02:42;;;;;;;34.83;12.23;;;;;;;7.19;100.00;101172.78;6239368;28;20430;-79
2024/03/13 08:05:44;;;;;;;25.05;9.35;;;;;;;7.31;100.00;101171.50;6268470;28;20055;-77
2024/03/13 08:08:46;;;;;;;28.95;10.15;;;;;;;7.44;100.00;101174.59;6263227;28;20041;-77
2024/03/13 08:11:47;;;;;;;29.77;9.98;;;;;;;7.55;100.00;101168.09;6284719;28;20424;-78
2024/03/13 08:14:49;;;;;;;25.95;10.32;;;;;;;7.59;100.00;101169.69;6278832;28;20052;-78
2024/03/13 08:17:50;;;;;;;26.55;10.23;;;;;;;7.73;100.00;101168.38;6284000;28;20535;-79
2024/03/13 08:20:54;;;;;;;28.40;10.15;;;;;;;7.80;100.00;101173.31;6284869;28;20049;-79
2024/03/13 08:23:56;;;;;;;30.55;9.68;;;;;;;7.83;100.00;101172.38;6277937;28;20055;-78
2024/03/13 08:26:57;;;;;;;24.90;8.98;;;;;;;7.89;100.00;101170.38;6286508;28;20054;-78
2024/03/13 08:29:59;;;;;;;25.08;9.15;;;;;;;7.99;100.00;101165.66;6286404;28;20048;-78
2024/03/13 08:33:01;;;;;;;29.48;9.75;;;;;;;8.03;100.00;101161.19;6268596;28;20116;-79
2024/03/13 08:36:02;;;;;;;30.63;10.77;;;;;;;8.04;100.00;101161.16;6268649;28;20060;-78
2024/03/13 08:39:04;;;;;;;28.85;10.52;;;;;;;8.12;100.00;101166.94;6248389;28;20128;-79
2024/03/13 08:42:06;;;;;;;23.77;8.88;;;;;;;8.15;100.00;101165.97;6261559;28;20497;-79
2024/03/13 08:45:10;;;;;;;22.38;9.35;;;;;;;8.22;100.00;101166.59;6233178;23;20055;-75
2024/03/13 08:48:11;;;;;;;21.55;8.98;;;;;;;8.26;100.00;101163.81;6195282;28;20451;-75
2024/03/13 08:51:13;;;;;;;21.50;8.77;;;;;;;8.33;100.00;101169.69;6179829;28;20058;-74
2024/03/13 08:54:14;;;;;;;19.17;7.55;;;;;;;8.39;100.00;101177.34;6164040;28;20043;-75
2024/03/13 08:57:17;;;;;;;24.02;9.43;;;;;;;8.45;100.00;101185.00;6164060;28;20062;-75
2024/03/13 09:00:20;;;;;;;22.58;9.63;;;;;;;8.58;100.00;101180.13;6163645;28;20054;-75
2024/03/13 09:03:23;;;;;;;27.83;9.35;;;;;;;8.69;100.00;101177.09;6164117;28;20058;-75
2024/03/13 09:06:25;;;;;;;18.88;7.72;;;;;;;8.71;100.00;101185.75;6163651;28;20351;-75
2024/03/13 09:09:26;;;;;;;19.60;7.35;;;;;;;8.83;100.00;101196.63;6179115;28;20050;-75
2024/03/13 09:12:29;;;;;;;20.92;8.88;;;;;;;8.93;100.00;101198.88;6163859;28;20054;-75
2024/03/13 09:15:30;;;;;;;25.58;10.35;;;;;;;8.93;100.00;101191.88;6163626;28;20407;-75
2024/03/13 09:18:32;;;;;;;23.70;9.35;;;;;;;8.95;100.00;101192.66;6163339;28;20047;-76
2024/03/13 09:21:34;;;;;;;18.73;8.32;;;;;;;9.03;100.00;101194.97;6165667;28;20061;-76
2024/03/13 09:24:36;;;;;;;18.65;8.02;;;;;;;9.12;100.00;101194.59;6166910;28;20042;-75
2024/03/13 09:27:37;;;;;;;25.52;9.23;;;;;;;9.35;100.00;101202.38;6163824;28;20069;-75
2024/03/13 09:30:39;;;;;;;27.40;9.18;;;;;;;9.39;100.00;101200.50;6178998;28;20455;-76
2024/03/13 09:33:40;;;;;;;20.42;9.23;;;;;;;9.39;100.00;101192.63;6163201;28;20058;-75
2024/03/13 09:36:42;;;;;;;19.02;7.72;;;;;;;9.55;100.00;101190.25;6162920;28;20073;-73
2024/03/13 09:39:44;;;;;;;21.42;8.68;;;;;;;9.65;100.00;101189.78;6162786;28;20047;-77
2024/03/13 09:42:46;;;;;;;21.05;7.85;;;;;;;9.73;100.00;101189.47;6163050;28;20069;-76
2024/03/13 09:45:47;;;;;;;18.25;7.10;;;;;;;9.84;100.00;101187.22;6162653;28;20051;-78
2024/03/13 09:48:49;;;;;;;16.95;7.68;;;;;;;9.96;100.00;101182.38;6162795;28;20046;-77
2024/03/13 09:51:51;;;;;;;17.85;7.75;;;;;;;10.13;100.00;101185.94;6162228;28;20047;-75
2024/03/13 09:54:52;;;;;;;20.80;7.30;;;;;;;10.16;100.00;101196.31;6162417;28;20051;-76
2024/03/13 09:57:54;;;;;;;23.02;7.72;;;;;;;10.26;100.00;101191.53;6162862;28;20058;-76
2024/03/13 10:00:56;;;;;;;20.13;6.85;;;;;;;10.30;100.00;101200.13;6162194;28;20054;-76
2024/03/13 10:04:01;;;;;;;16.95;6.63;;;;;;;10.32;100.00;101193.88;6163037;28;20455;-76
2024/03/13 10:07:03;;;;;;;18.42;6.90;;;;;;;10.28;100.00;101210.72;6154618;29;20069;-76
2024/03/13 10:10:08;;;;;;;14.02;6.22;;;;;;;10.31;100.00;101199.19;6153804;28;20074;-77
2024/03/13 10:13:09;;;;;;;15.57;7.30;;;;;;;10.55;100.00;101205.13;6154175;28;20047;-76
2024/03/13 10:16:12;;;;;;;16.58;6.70;;;;;;;10.72;100.00;101201.69;6138073;29;20055;-76
2024/03/13 10:19:13;;;;;;;15.57;7.18;;;;;;;10.76;100.00;101200.63;6138358;29;20138;-75
2024/03/13 10:22:15;;;;;;;16.92;7.45;;;;;;;10.85;100.00;101202.84;6138355;29;20125;-76
2024/03/13 10:25:19;;;;;;;18.83;7.15;;;;;;;10.85;100.00;101201.06;6137682;29;20051;-76
2024/03/13 10:28:23;;;;;;;14.27;6.88;;;;;;;10.93;100.00;101198.91;6138411;29;20048;-78
2024/03/13 10:31:25;;;;;;;16.63;6.75;;;;;;;10.96;100.00;101202.34;6137116;29;20051;-77
2024/03/13 10:34:27;;;;;;;16.85;7.90;;;;;;;11.02;100.00;101200.25;6137600;29;20087;-76
2024/03/13 10:37:28;;;;;;;21.83;7.85;;;;;;;10.86;100.00;101201.94;6138163;29;20079;-75
2024/03/13 10:40:30;;;;;;;15.40;7.72;;;;;;;10.86;100.00;101205.41;6167050;28;20050;-76
2024/03/13 10:43:32;;;;;;;18.20;7.07;;;;;;;10.97;100.00;101211.94;6179129;28;20055;-77
2024/03/13 10:46:33;;;;;;;15.95;7.40;;;;;;;10.79;100.00;101219.75;6177113;28;20050;-77
2024/03/13 10:49:35;;;;;;;19.15;6.93;;;;;;;10.75;100.00;101205.03;6176792;28;20356;-77
2024/03/13 10:52:37;;;;;;;21.25;7.43;;;;;;;10.74;100.00;101207.75;6177549;28;20043;-77
2024/03/13 10:55:39;;;;;;;17.25;8.07;;;;;;;10.71;100.00;101207.88;6177117;28;20062;-77
2024/03/13 10:58:41;;;;;;;15.82;7.47;;;;;;;10.73;100.00;101204.28;6177489;28;20046;-76
2024/03/13 11:01:45;;;;;;;19.60;8.05;;;;;;;10.83;100.00;101202.06;6176858;28;20096;-76
2024/03/13 11:04:49;;;;;;;21.40;8.10;;;;;;;10.79;100.00;101205.75;6160835;28;20050;-76
2024/03/13 11:07:52;;;;;;;23.67;8.45;;;;;;;10.82;100.00;101205.63;6161342;28;20062;-76
2024/03/13 11:10:54;;;;;;;15.38;7.72;;;;;;;10.82;100.00;101203.00;6161124;28;20062;-77
2024/03/13 11:13:58;;;;;;;17.75;7.28;;;;;;;10.93;100.00;101200.69;6160837;28;20047;-76
2024/03/13 11:16:59;;;;;;;17.98;7.82;;;;;;;10.89;100.00;101199.13;6161196;28;20462;-77
2024/03/13 11:20:04;;;;;;;14.90;6.55;;;;;;;10.96;100.00;101197.09;6160393;28;20055;-75
2024/03/13 11:23:07;;;;;;;24.33;7.70;;;;;;;11.07;100.00;101193.00;6159517;28;20074;-77
2024/03/13 11:26:09;;;;;;;18.85;6.97;;;;;;;11.11;100.00;101198.97;6158872;28;20061;-77
2024/03/13 11:29:11;;;;;;;17.77;7.38;;;;;;;11.10;100.00;101195.50;6160622;28;20055;-76
2024/03/13 11:32:13;;;;;;;22.05;8.00;;;;;;;11.17;100.00;101193.41;6161366;28;20047;-76
2024/03/13 11:35:15;;;;;;;21.27;7.57;;;;;;;11.09;100.00;101193.78;6160245;28;20363;-76
2024/03/13 11:38:16;;;;;;;16.58;7.55;;;;;;;11.08;100.00;101186.84;6160861;28;20058;-75
2024/03/13 11:41:18;;;;;;;15.35;7.28;;;;;;;11.12;100.00;101182.25;6160306;28;20392;-75
2024/03/13 11:44:19;;;;;;;16.25;7.57;;;;;;;11.16;100.00;101181.19;6160077;28;20051;-76
2024/03/13 11:47:22;;;;;;;16.95;7.22;;;;;;;11.27;100.00;101178.03;6160468;28;20333;-76
2024/03/13 11:50:24;;;;;;;19.30;7.78;;;;;;;11.32;100.00;101179.50;6160277;28;20440;-76
2024/03/13 11:53:25;;;;;;;15.48;6.65;;;;;;;11.37;100.00;101180.13;6160453;28;20047;-78
2024/03/13 11:56:29;;;;;;;14.40;6.53;;;;;;;11.32;100.00;101179.50;6160666;28;20062;-77
2024/03/13 11:59:43;;;;;;;16.25;7.25;;;;;;;11.29;100.00;101174.41;6160104;28;20100;-78
2024/03/13 12:02:47;;;;;;;19.27;7.65;;;;;;;11.14;100.00;101178.63;6160455;28;20047;-79
2024/03/13 12:05:48;;;;;;;18.88;7.10;;;;;;;11.14;100.00;101176.00;6159720;28;20051;-75
2024/03/13 12:08:50;;;;;;;16.40;7.47;;;;;;;11.09;100.00;101170.13;6160455;28;20053;-79
2024/03/13 12:11:52;;;;;;;16.55;6.70;;;;;;;11.05;100.00;101172.97;6160212;28;20061;-75
2024/03/13 12:14:55;;;;;;;17.63;7.55;;;;;;;11.04;100.00;101166.03;6159972;28;20420;-78
2024/03/13 12:17:56;;;;;;;12.18;6.60;;;;;;;11.04;100.00;101166.88;6160677;28;20053;-76
2024/03/13 12:20:58;;;;;;;17.65;7.60;;;;;;;10.99;100.00;101165.38;6159792;28;20051;-76
2024/03/13 12:23:59;;;;;;;18.40;6.63;;;;;;;10.93;100.00;101164.72;6160291;28;20049;-77
2024/03/13 12:27:01;;;;;;;15.85;7.43;;;;;;;10.95;100.00;101163.84;6159906;28;20051;-76
2024/03/13 12:30:04;;;;;;;12.15;6.03;;;;;;;11.04;100.00;101158.97;6159904;28;20054;-77
2024/03/13 12:33:06;;;;;;;14.20;6.45;;;;;;;10.96;100.00;101155.00;6160217;28;20194;-77
2024/03/13 12:36:07;;;;;;;14.23;6.28;;;;;;;10.98;100.00;101156.63;6160187;28;20126;-77
2024/03/13 12:39:10;;;;;;;13.23;6.88;;;;;;;10.98;100.00;101158.41;6159970;28;20055;-78
2024/03/13 12:42:12;;;;;;;13.98;6.93;;;;;;;11.07;100.00;101161.44;6160656;28;20479;-77
2024/03/13 12:45:14;;;;;;;16.50;7.40;;;;;;;11.11;100.00;101156.88;6159953;28;20061;-76
2024/03/13 12:48:16;;;;;;;14.30;6.88;;;;;;;11.03;100.00;101159.88;6159894;28;20578;-76
2024/03/13 12:51:18;;;;;;;15.68;6.72;;;;;;;11.06;100.00;101166.78;6159883;28;20539;-77
2024/03/13 12:54:19;;;;;;;13.48;6.65;;;;;;;11.01;100.00;101161.75;6161097;28;20058;-76
2024/03/13 12:57:21;;;;;;;22.45;7.70;;;;;;;10.95;100.00;101158.56;6164373;28;20055;-76
2024/03/13 13:00:22;;;;;;;14.13;6.75;;;;;;;10.97;100.00;101159.34;6163708;28;20050;-78
2024/03/13 13:03:24;;;;;;;15.55;7.00;;;;;;;11.08;100.00;101157.03;6164228;28;20051;-76
2024/03/13 13:06:26;;;;;;;14.25;7.10;;;;;;;11.10;100.00;101152.56;6183785;28;20055;-77
2024/03/13 13:09:29;;;;;;;13.10;6.65;;;;;;;11.09;100.00;101156.97;6172925;28;20050;-78
2024/03/13 13:12:30;;;;;;;16.35;7.55;;;;;;;11.12;100.00;101154.16;6166182;28;20055;-78
2024/03/13 13:15:32;;;;;;;16.35;7.15;;;;;;;11.19;100.00;101162.63;6164330;28;20051;-78
2024/03/13 13:18:33;;;;;;;13.75;6.60;;;;;;;11.25;100.00;101153.56;6163640;28;20054;-76
2024/03/13 13:21:35;;;;;;;15.82;7.65;;;;;;;11.16;100.00;101153.09;6163088;28;20130;-76
2024/03/13 13:24:36;;;;;;;14.60;7.25;;;;;;;11.09;100.00;101153.50;6163291;28;20325;-79
2024/03/13 13:27:39;;;;;;;15.40;7.63;;;;;;;11.00;100.00;101154.78;6163673;28;20047;-76
2024/03/13 13:30:44;;;;;;;14.25;7.13;;;;;;;10.92;100.00;101154.31;6163102;28;20122;-75
2024/03/13 13:33:46;;;;;;;18.65;7.68;;;;;;;10.93;100.00;101153.38;6163574;28;20051;-75
2024/03/13 13:36:50;;;;;;;16.50;6.30;;;;;;;10.92;100.00;101156.94;6160160;28;20065;-75
2024/03/13 13:39:52;;;;;;;17.48;7.22;;;;;;;10.86;100.00;101159.88;6163171;28;20456;-76
2024/03/13 13:42:54;;;;;;;16.38;7.85;;;;;;;10.89;100.00;101157.91;6163458;28;20070;-78
2024/03/13 13:45:55;;;;;;;16.45;7.18;;;;;;;10.88;100.00;101158.00;6162625;28;20062;-77
2024/03/13 13:48:58;;;;;;;14.27;7.07;;;;;;;10.98;100.00;101155.78;6162766;28;20454;-77
2024/03/13 13:52:00;;;;;;;21.23;8.00;;;;;;;11.02;100.00;101158.19;6163462;28;20062;-77
2024/03/13 13:55:01;;;;;;;20.73;7.55;;;;;;;11.03;100.00;101159.88;6142492;29;20132;-77
2024/03/13 13:58:05;;;;;;;18.05;7.10;;;;;;;11.03;100.00;101161.66;6147443;28;20133;-78
2024/03/13 14:01:06;;;;;;;23.02;6.03;;;;;;;11.07;100.00;101158.81;6178308;28;20050;-78
2024/03/13 14:04:08;;;;;;;16.52;7.32;;;;;;;11.04;100.00;101161.59;6178688;28;20043;-76
2024/03/13 14:07:10;;;;;;;14.02;6.57;;;;;;;10.98;100.00;101163.66;6178244;28;20058;-77
2024/03/13 14:10:11;;;;;;;17.15;6.88;;;;;;;10.95;100.00;101169.94;6162260;28;20454;-76